Time;durP1;ratioP1;P1;durP2;ratioP2;P2;SDS_P1;SDS_P2;PMS_P1;PMS_P2;Temp;Humidity;BMP_temperature;BMP_pressure;BME280_temperature;BME280_humidity;BME280_pressure;Samples;Min_cycle;Max_cycle;Signal;HPM_P1;HPM_P2
2021/04/14 00:02:20;;;;;;;8.63;5.20;;;;;;;;;;5010756;28;20466;-63
2021/04/14 00:04:47;;;;;;;12.00;5.93;;;;;;;;;;4999011;28;20478;-63
2021/04/14 00:07:14;;;;;;;11.57;5.20;;;;;;;;;;4998683;28;20458;-63
2021/04/14 00:09:40;;;;;;;11.23;5.77;;;;;;;;;;5000127;28;20814;-63
2021/04/14 00:12:09;;;;;;;9.27;4.83;;;;;;;;;;4997294;28;20454;-63
2021/04/14 00:14:36;;;;;;;15.23;5.00;;;;;;;;;;5010698;28;20534;-63
2021/04/14 00:17:03;;;;;;;5.00;4.50;;;;;;;;;;5010366;28;20955;-63
2021/04/14 00:19:30;;;;;;;8.23;4.50;;;;;;;;;;5011241;28;20481;-63
2021/04/14 00:21:56;;;;;;;12.50;5.03;;;;;;;;;;5010598;28;20524;-63
2021/04/14 00:24:23;;;;;;;9.30;5.20;;;;;;;;;;4999012;28;20849;-63
2021/04/14 00:26:50;;;;;;;10.60;4.70;;;;;;;;;;5011261;28;20975;-63
2021/04/14 00:29:17;;;;;;;12.17;5.97;;;;;;;;;;5005719;28;20805;-63
2021/04/14 00:31:44;;;;;;;11.63;5.90;;;;;;;;;;5009549;28;20457;-63
2021/04/14 00:34:14;;;;;;;11.10;5.60;;;;;;;;;;5006872;28;20536;-63
2021/04/14 00:36:42;;;;;;;14.03;6.00;;;;;;;;;;4998961;28;20980;-62
2021/04/14 00:39:11;;;;;;;12.60;6.40;;;;;;;;;;4995872;28;20489;-63
2021/04/14 00:41:38;;;;;;;13.90;6.23;;;;;;;;;;5007526;28;20632;-63
2021/04/14 00:44:05;;;;;;;11.40;5.20;;;;;;;;;;5015267;28;20469;-64
2021/04/14 00:46:33;;;;;;;9.20;5.77;;;;;;;;;;5006878;28;20446;-63
2021/04/14 00:48:59;;;;;;;13.83;5.10;;;;;;;;;;5003065;28;20834;-63
2021/04/14 00:51:26;;;;;;;12.53;6.97;;;;;;;;;;5004919;28;20453;-62
2021/04/14 00:53:53;;;;;;;12.20;6.23;;;;;;;;;;5014362;28;20482;-62
2021/04/14 00:56:19;;;;;;;12.33;5.60;;;;;;;;;;5013571;28;20461;-63
2021/04/14 00:58:46;;;;;;;13.20;4.97;;;;;;;;;;5013062;28;20481;-63
2021/04/14 01:01:13;;;;;;;11.83;5.90;;;;;;;;;;5002184;28;20464;-62
2021/04/14 01:03:40;;;;;;;12.43;5.77;;;;;;;;;;5014369;28;20477;-62
2021/04/14 01:06:09;;;;;;;7.77;5.27;;;;;;;;;;5013528;28;21204;-62
2021/04/14 01:08:36;;;;;;;8.63;5.27;;;;;;;;;;5013710;28;20504;-62
2021/04/14 01:11:03;;;;;;;10.10;5.60;;;;;;;;;;5013995;28;20970;-62
2021/04/14 01:13:30;;;;;;;10.40;5.73;;;;;;;;;;5008980;28;20470;-62
2021/04/14 01:15:57;;;;;;;16.53;6.70;;;;;;;;;;5011584;28;21106;-62
2021/04/14 01:18:24;;;;;;;8.17;4.33;;;;;;;;;;5006341;28;20857;-62
2021/04/14 01:20:52;;;;;;;11.73;5.87;;;;;;;;;;5010448;28;20523;-62
2021/04/14 01:23:20;;;;;;;8.50;4.97;;;;;;;;;;5007300;28;20453;-62
2021/04/14 01:25:46;;;;;;;10.57;5.50;;;;;;;;;;4994792;28;20456;-62
2021/04/14 01:28:14;;;;;;;7.17;5.70;;;;;;;;;;5003183;28;20942;-62
2021/04/14 01:30:41;;;;;;;18.03;6.03;;;;;;;;;;4994780;28;20442;-61
2021/04/14 01:33:08;;;;;;;12.30;5.53;;;;;;;;;;5001809;28;20466;-62
2021/04/14 01:35:35;;;;;;;16.27;5.80;;;;;;;;;;4994500;28;20450;-62
2021/04/14 01:38:02;;;;;;;10.30;5.77;;;;;;;;;;5004414;28;20482;-62
2021/04/14 01:40:29;;;;;;;10.80;6.47;;;;;;;;;;5013890;28;20816;-62
2021/04/14 01:42:56;;;;;;;14.13;6.20;;;;;;;;;;5002563;28;20453;-62
2021/04/14 01:45:25;;;;;;;10.27;5.13;;;;;;;;;;4994048;28;20471;-62
2021/04/14 01:47:51;;;;;;;10.10;5.90;;;;;;;;;;5001761;28;20449;-62
2021/04/14 01:50:18;;;;;;;11.03;6.50;;;;;;;;;;5014331;28;20510;-62
2021/04/14 01:52:45;;;;;;;10.13;5.67;;;;;;;;;;5013195;28;20813;-63
2021/04/14 01:55:12;;;;;;;11.33;5.77;;;;;;;;;;5013751;28;20481;-62
2021/04/14 01:57:43;;;;;;;12.33;5.90;;;;;;;;;;5012545;28;20450;-62
2021/04/14 02:00:14;;;;;;;9.20;5.70;;;;;;;;;;5013981;28;20534;-62
2021/04/14 02:02:41;;;;;;;13.23;6.20;;;;;;;;;;5012990;28;20790;-62
2021/04/14 02:05:08;;;;;;;13.43;5.60;;;;;;;;;;4996174;28;20478;-62
2021/04/14 02:07:35;;;;;;;10.30;5.10;;;;;;;;;;5002668;28;20454;-62
2021/04/14 02:10:02;;;;;;;12.67;6.37;;;;;;;;;;4998061;28;20446;-62
2021/04/14 02:12:28;;;;;;;14.83;7.53;;;;;;;;;;4994274;28;20450;-62
2021/04/14 02:14:56;;;;;;;10.50;6.03;;;;;;;;;;5007510;28;20485;-62
2021/04/14 02:17:22;;;;;;;9.73;5.80;;;;;;;;;;5011450;28;20453;-62
2021/04/14 02:19:49;;;;;;;9.70;5.70;;;;;;;;;;5000150;28;20483;-61
2021/04/14 02:22:15;;;;;;;13.50;6.37;;;;;;;;;;4994050;28;20471;-61
2021/04/14 02:24:42;;;;;;;8.27;4.90;;;;;;;;;;5004976;28;20482;-61
2021/04/14 02:27:09;;;;;;;8.90;5.63;;;;;;;;;;5012954;28;20465;-62
2021/04/14 02:29:35;;;;;;;7.83;5.37;;;;;;;;;;5011690;28;20479;-62
2021/04/14 02:32:03;;;;;;;7.07;5.00;;;;;;;;;;5012589;28;20873;-62
2021/04/14 02:34:30;;;;;;;7.70;5.67;;;;;;;;;;5011148;28;21079;-62
2021/04/14 02:36:56;;;;;;;10.57;5.13;;;;;;;;;;5009826;28;20456;-62
2021/04/14 02:39:23;;;;;;;11.87;5.80;;;;;;;;;;5002497;28;21003;-62
2021/04/14 02:41:50;;;;;;;7.80;5.03;;;;;;;;;;5012307;28;20445;-62
2021/04/14 02:44:16;;;;;;;8.70;4.83;;;;;;;;;;5012801;28;20474;-62
2021/04/14 02:46:43;;;;;;;10.00;5.67;;;;;;;;;;5006020;28;20992;-62
2021/04/14 02:49:10;;;;;;;7.17;4.50;;;;;;;;;;4999676;28;20453;-62
2021/04/14 02:51:37;;;;;;;9.07;4.53;;;;;;;;;;5012844;28;20472;-62
2021/04/14 02:54:04;;;;;;;11.20;4.70;;;;;;;;;;5007233;28;20479;-62
2021/04/14 02:56:31;;;;;;;7.20;5.17;;;;;;;;;;4993867;28;20469;-62
2021/04/14 02:58:57;;;;;;;7.67;4.83;;;;;;;;;;5007043;28;20533;-62
2021/04/14 03:01:26;;;;;;;7.17;5.47;;;;;;;;;;4995010;28;22121;-62
2021/04/14 03:03:53;;;;;;;11.53;5.13;;;;;;;;;;5012506;28;20492;-62
2021/04/14 03:06:20;;;;;;;7.83;5.30;;;;;;;;;;5012402;28;20449;-62
2021/04/14 03:08:47;;;;;;;7.50;5.00;;;;;;;;;;5002873;28;20453;-62
2021/04/14 03:11:14;;;;;;;9.83;5.27;;;;;;;;;;5012385;28;20790;-62
2021/04/14 03:13:40;;;;;;;7.90;4.90;;;;;;;;;;4992888;28;20528;-61
2021/04/14 03:16:07;;;;;;;8.50;5.10;;;;;;;;;;5012228;28;20994;-62
2021/04/14 03:18:34;;;;;;;12.53;6.43;;;;;;;;;;5011433;28;20481;-62
2021/04/14 03:21:01;;;;;;;9.77;5.60;;;;;;;;;;5011388;28;20456;-62
2021/04/14 03:23:28;;;;;;;12.13;6.30;;;;;;;;;;5011685;28;20545;-62
2021/04/14 03:25:55;;;;;;;8.00;4.97;;;;;;;;;;5010970;28;20449;-62
2021/04/14 03:28:22;;;;;;;9.23;6.23;;;;;;;;;;4997749;28;20486;-62
2021/04/14 03:30:48;;;;;;;6.33;5.13;;;;;;;;;;5009063;28;20461;-62
2021/04/14 03:33:15;;;;;;;7.70;5.30;;;;;;;;;;5014303;28;20449;-62
2021/04/14 03:35:42;;;;;;;11.20;6.17;;;;;;;;;;5002905;28;20450;-62
2021/04/14 03:38:09;;;;;;;11.33;5.40;;;;;;;;;;4994705;28;20459;-62
2021/04/14 03:40:37;;;;;;;8.20;5.20;;;;;;;;;;5002668;28;20942;-62
2021/04/14 03:43:04;;;;;;;14.00;5.70;;;;;;;;;;4992606;28;20450;-62
2021/04/14 03:45:33;;;;;;;13.00;6.20;;;;;;;;;;5007794;28;20565;-62
2021/04/14 03:48:00;;;;;;;10.13;5.50;;;;;;;;;;5019603;28;20460;-62
2021/04/14 03:50:29;;;;;;;6.80;6.00;;;;;;;;;;5026953;28;20980;-63
2021/04/14 03:52:56;;;;;;;9.97;5.63;;;;;;;;;;5008040;28;20458;-62
2021/04/14 03:55:23;;;;;;;9.93;5.40;;;;;;;;;;5006441;28;20471;-62
2021/04/14 03:57:51;;;;;;;10.20;5.23;;;;;;;;;;4992570;28;20513;-62
2021/04/14 04:00:18;;;;;;;8.77;5.70;;;;;;;;;;5008202;28;20532;-62
2021/04/14 04:02:44;;;;;;;14.40;6.70;;;;;;;;;;5011922;28;20441;-62
2021/04/14 04:05:12;;;;;;;10.73;6.10;;;;;;;;;;4997611;28;20478;-62
2021/04/14 04:07:38;;;;;;;12.97;6.23;;;;;;;;;;4998144;28;20525;-61
2021/04/14 04:10:06;;;;;;;9.87;6.73;;;;;;;;;;5014963;28;20445;-62
2021/04/14 04:12:33;;;;;;;10.40;7.23;;;;;;;;;;4999049;28;20450;-62
2021/04/14 04:15:00;;;;;;;11.53;6.17;;;;;;;;;;5018367;23;20595;-64
2021/04/14 04:17:27;;;;;;;12.60;7.27;;;;;;;;;;4995322;28;20454;-65
2021/04/14 04:19:53;;;;;;;15.73;7.27;;;;;;;;;;4996132;28;20494;-64
2021/04/14 04:22:20;;;;;;;8.03;6.87;;;;;;;;;;4995588;28;20485;-64
2021/04/14 04:24:47;;;;;;;7.73;6.67;;;;;;;;;;4995684;28;20484;-64
2021/04/14 04:27:14;;;;;;;10.50;6.90;;;;;;;;;;4995181;28;20863;-64
2021/04/14 04:29:40;;;;;;;10.03;7.40;;;;;;;;;;4996627;28;20451;-64
2021/04/14 04:32:08;;;;;;;10.10;7.30;;;;;;;;;;4996244;28;20455;-63
2021/04/14 04:34:35;;;;;;;14.33;7.87;;;;;;;;;;5009744;28;20478;-64
2021/04/14 04:37:02;;;;;;;11.63;6.90;;;;;;;;;;4995396;28;21062;-64
2021/04/14 04:39:29;;;;;;;12.53;7.27;;;;;;;;;;4995676;28;20489;-64
2021/04/14 04:41:55;;;;;;;10.50;7.50;;;;;;;;;;4995390;28;20451;-65
2021/04/14 04:44:22;;;;;;;13.47;8.80;;;;;;;;;;4998332;28;20484;-65
2021/04/14 04:46:48;;;;;;;13.00;7.57;;;;;;;;;;4995286;28;20961;-64
2021/04/14 04:49:16;;;;;;;11.03;6.60;;;;;;;;;;5009787;28;20452;-64
2021/04/14 04:51:42;;;;;;;9.63;6.60;;;;;;;;;;5011454;28;20457;-64
2021/04/14 04:54:10;;;;;;;11.97;7.10;;;;;;;;;;4994954;28;20466;-64
2021/04/14 04:56:37;;;;;;;8.77;7.00;;;;;;;;;;4994970;28;20942;-64
2021/04/14 04:59:03;;;;;;;10.13;6.70;;;;;;;;;;4995129;28;20490;-64
2021/04/14 05:01:30;;;;;;;11.87;6.03;;;;;;;;;;4994978;28;20450;-66
2021/04/14 05:03:57;;;;;;;14.80;6.27;;;;;;;;;;4995048;28;20454;-65
2021/04/14 05:06:24;;;;;;;11.03;5.80;;;;;;;;;;4994889;28;20458;-65
2021/04/14 05:08:51;;;;;;;7.80;5.83;;;;;;;;;;5002764;28;20496;-65
2021/04/14 05:11:17;;;;;;;8.70;5.87;;;;;;;;;;5014611;28;20515;-64
2021/04/14 05:13:44;;;;;;;7.43;5.50;;;;;;;;;;5003293;28;20463;-64
2021/04/14 05:16:11;;;;;;;8.83;5.43;;;;;;;;;;4993915;28;20541;-64
2021/04/14 05:18:37;;;;;;;7.97;6.23;;;;;;;;;;4994479;28;20478;-64
2021/04/14 05:21:04;;;;;;;7.50;5.80;;;;;;;;;;4994841;28;20457;-64
2021/04/14 05:23:32;;;;;;;8.97;6.77;;;;;;;;;;4994805;28;20455;-64
2021/04/14 05:25:58;;;;;;;10.20;5.40;;;;;;;;;;4994421;28;20841;-63
2021/04/14 05:28:27;;;;;;;9.73;6.10;;;;;;;;;;4993788;28;20454;-63
2021/04/14 05:30:53;;;;;;;5.50;4.80;;;;;;;;;;4995232;28;20509;-64
2021/04/14 05:33:20;;;;;;;5.87;5.10;;;;;;;;;;4994817;28;20462;-64
2021/04/14 05:35:47;;;;;;;8.17;4.90;;;;;;;;;;4994362;28;20791;-64
2021/04/14 05:38:14;;;;;;;6.40;4.20;;;;;;;;;;4994303;28;20451;-64
2021/04/14 05:40:41;;;;;;;10.13;2.47;;;;;;;;;;4994761;28;20447;-64
2021/04/14 05:43:12;;;;;;;6.70;2.57;;;;;;;;;;4994377;28;20510;-66
2021/04/14 05:45:39;;;;;;;4.60;2.93;;;;;;;;;;4994156;28;20475;-67
2021/04/14 05:48:06;;;;;;;5.17;2.37;;;;;;;;;;4994378;28;20486;-65
2021/04/14 05:50:33;;;;;;;10.80;2.50;;;;;;;;;;5012429;28;20457;-65
2021/04/14 05:52:59;;;;;;;3.13;1.80;;;;;;;;;;5014318;28;20500;-66
2021/04/14 05:55:26;;;;;;;4.67;1.77;;;;;;;;;;4997248;28;20474;-65
2021/04/14 05:57:53;;;;;;;2.70;1.63;;;;;;;;;;5003349;28;20450;-65
2021/04/14 06:00:20;;;;;;;3.83;1.63;;;;;;;;;;4994820;28;20501;-65
2021/04/14 06:02:47;;;;;;;5.50;1.87;;;;;;;;;;4994367;28;21129;-65
2021/04/14 06:05:16;;;;;;;4.30;1.60;;;;;;;;;;4993987;28;21019;-65
2021/04/14 06:07:43;;;;;;;4.67;2.17;;;;;;;;;;4994065;28;20446;-65
2021/04/14 06:10:11;;;;;;;2.17;1.20;;;;;;;;;;4994142;28;20451;-66
2021/04/14 06:12:37;;;;;;;2.70;1.40;;;;;;;;;;5001059;28;20459;-65
2021/04/14 06:15:07;;;;;;;2.77;1.30;;;;;;;;;;4993972;28;20528;-66
2021/04/14 06:17:34;;;;;;;2.47;1.30;;;;;;;;;;4994004;28;20851;-65
2021/04/14 06:20:00;;;;;;;3.43;1.60;;;;;;;;;;4994110;28;20478;-66
2021/04/14 06:22:27;;;;;;;3.53;1.53;;;;;;;;;;5001302;28;20472;-65
2021/04/14 06:24:54;;;;;;;3.40;1.40;;;;;;;;;;5013373;28;20976;-65
2021/04/14 06:27:31;;;;;;;2.97;1.30;;;;;;;;;;5010221;28;20523;-65
2021/04/14 06:29:57;;;;;;;4.47;1.57;;;;;;;;;;4993415;28;20890;-65
2021/04/14 06:32:25;;;;;;;4.33;1.30;;;;;;;;;;4996838;28;20489;-65
2021/04/14 06:34:53;;;;;;;4.73;1.53;;;;;;;;;;5013543;28;20469;-65
2021/04/14 06:37:19;;;;;;;3.83;1.70;;;;;;;;;;5013062;28;20995;-65
2021/04/14 06:39:54;;;;;;;2.70;1.87;;;;;;;;;;5012997;28;20477;-64
2021/04/14 06:42:34;;;;;;;4.33;1.67;;;;;;;;;;5009202;28;20461;-63
2021/04/14 06:45:05;;;;;;;10.93;2.17;;;;;;;;;;5004315;28;20480;-66
2021/04/14 06:47:38;;;;;;;3.43;1.50;;;;;;;;;;5012986;28;20430;-65
2021/04/14 06:50:08;;;;;;;4.10;1.70;;;;;;;;;;5002806;28;20435;-66
2021/04/14 06:52:36;;;;;;;4.50;1.53;;;;;;;;;;4998450;28;20457;-66
2021/04/14 06:55:06;;;;;;;3.40;1.50;;;;;;;;;;5002964;28;20954;-65
2021/04/14 06:57:34;;;;;;;2.90;1.40;;;;;;;;;;4993798;28;20500;-63
2021/04/14 07:00:03;;;;;;;4.27;1.60;;;;;;;;;;4992616;28;20572;-64
2021/04/14 07:02:32;;;;;;;2.73;1.43;;;;;;;;;;5005522;28;20496;-64
2021/04/14 07:05:03;;;;;;;5.90;2.00;;;;;;;;;;5012733;28;20484;-65
2021/04/14 07:07:31;;;;;;;3.63;1.67;;;;;;;;;;5013089;28;20580;-64
2021/04/14 07:10:01;;;;;;;4.37;1.60;;;;;;;;;;5012840;28;20448;-64
2021/04/14 07:12:28;;;;;;;4.43;1.40;;;;;;;;;;5006740;28;20461;-64
2021/04/14 07:14:55;;;;;;;2.20;1.37;;;;;;;;;;4992752;28;20482;-64
2021/04/14 07:17:26;;;;;;;3.47;1.50;;;;;;;;;;4994615;28;20455;-63
2021/04/14 07:19:59;;;;;;;2.27;1.10;;;;;;;;;;4992766;28;20466;-63
2021/04/14 07:22:32;;;;;;;2.30;1.07;;;;;;;;;;5002648;28;20457;-65
2021/04/14 07:25:00;;;;;;;2.70;1.37;;;;;;;;;;5000591;28;20477;-63
2021/04/14 07:27:28;;;;;;;4.70;1.27;;;;;;;;;;4993608;28;20454;-64
2021/04/14 07:30:01;;;;;;;3.40;1.57;;;;;;;;;;4992604;28;20459;-64
2021/04/14 07:32:31;;;;;;;2.40;1.20;;;;;;;;;;5001283;28;20455;-64
2021/04/14 07:35:02;;;;;;;2.30;1.10;;;;;;;;;;5012413;28;20473;-67
2021/04/14 07:37:33;;;;;;;2.87;1.43;;;;;;;;;;5011807;28;20453;-63
2021/04/14 07:40:04;;;;;;;5.07;1.50;;;;;;;;;;5011283;28;21020;-65
2021/04/14 07:42:33;;;;;;;4.03;1.43;;;;;;;;;;5002942;28;20934;-65
2021/04/14 07:45:06;;;;;;;4.57;1.70;;;;;;;;;;4992430;28;20707;-65
2021/04/14 07:47:33;;;;;;;2.07;1.20;;;;;;;;;;5000229;28;20511;-66
2021/04/14 07:49:59;;;;;;;4.50;1.53;;;;;;;;;;5011891;28;20453;-65
2021/04/14 07:52:27;;;;;;;4.33;1.40;;;;;;;;;;5006274;28;20451;-64
2021/04/14 07:54:56;;;;;;;3.37;1.30;;;;;;;;;;4993259;28;20474;-66
2021/04/14 07:57:27;;;;;;;2.90;1.27;;;;;;;;;;4995817;28;20500;-65
2021/04/14 07:59:53;;;;;;;2.97;1.03;;;;;;;;;;5008307;28;20485;-64
2021/04/14 08:02:30;;;;;;;3.07;1.43;;;;;;;;;;4993259;28;20902;-66
2021/04/14 08:05:05;;;;;;;5.13;1.40;;;;;;;;;;4973075;28;20467;-65
2021/04/14 08:07:36;;;;;;;2.70;1.40;;;;;;;;;;4985097;28;20497;-65
2021/04/14 08:10:06;;;;;;;3.40;1.30;;;;;;;;;;4991976;28;20845;-66
2021/04/14 08:12:34;;;;;;;1.33;0.93;;;;;;;;;;4992164;28;20442;-65
2021/04/14 08:15:12;;;;;;;2.57;1.40;;;;;;;;;;4991561;28;20561;-65
2021/04/14 08:17:40;;;;;;;1.93;1.20;;;;;;;;;;4991965;28;20434;-65
2021/04/14 08:20:07;;;;;;;3.20;1.20;;;;;;;;;;4991979;28;20493;-66
2021/04/14 08:22:34;;;;;;;2.40;1.00;;;;;;;;;;4991504;28;20950;-66
2021/04/14 08:25:02;;;;;;;2.37;1.37;;;;;;;;;;4991931;28;20470;-65
2021/04/14 08:27:45;;;;;;;5.27;1.13;;;;;;;;;;4992662;28;20454;-65
2021/04/14 08:30:13;;;;;;;3.77;1.30;;;;;;;;;;4972400;28;20455;-66
2021/04/14 08:32:41;;;;;;;2.50;1.47;;;;;;;;;;5008464;28;21059;-65
2021/04/14 08:35:10;;;;;;;2.00;1.20;;;;;;;;;;4992906;28;20904;-66
2021/04/14 08:37:38;;;;;;;2.27;1.30;;;;;;;;;;4989921;28;20450;-65
2021/04/14 08:40:07;;;;;;;2.70;1.03;;;;;;;;;;4991779;28;20471;-66
2021/04/14 08:42:35;;;;;;;2.87;1.27;;;;;;;;;;4991542;28;20458;-65
2021/04/14 08:45:13;;;;;;;1.60;0.70;;;;;;;;;;4991645;28;20470;-63
2021/04/14 08:47:44;;;;;;;2.17;1.07;;;;;;;;;;4991612;28;20809;-65
2021/04/14 08:50:14;;;;;;;1.67;0.97;;;;;;;;;;4992215;28;20836;-66
2021/04/14 08:52:42;;;;;;;1.90;1.20;;;;;;;;;;4995375;28;20481;-65
2021/04/14 08:55:09;;;;;;;3.03;1.23;;;;;;;;;;4994995;28;20993;-65
2021/04/14 08:57:36;;;;;;;3.07;1.17;;;;;;;;;;4994653;28;20443;-64
2021/04/14 09:00:04;;;;;;;5.83;2.60;;;;;;;;;;4994372;28;20474;-65
2021/04/14 09:02:32;;;;;;;4.63;2.63;;;;;;;;;;4995933;28;21026;-66
2021/04/14 09:05:01;;;;;;;3.30;2.10;;;;;;;;;;5002721;28;20474;-66
2021/04/14 09:07:30;;;;;;;3.20;2.03;;;;;;;;;;4993234;28;20525;-66
2021/04/14 09:09:57;;;;;;;3.60;2.37;;;;;;;;;;5006662;28;20507;-66
2021/04/14 09:12:34;;;;;;;3.67;2.10;;;;;;;;;;4998732;28;20456;-67
2021/04/14 09:15:01;;;;;;;6.40;2.30;;;;;;;;;;4990051;28;20609;-66
2021/04/14 09:17:28;;;;;;;4.63;1.93;;;;;;;;;;4991885;28;20841;-67
2021/04/14 09:19:55;;;;;;;2.80;1.80;;;;;;;;;;4995093;28;20482;-66
2021/04/14 09:22:24;;;;;;;3.83;2.03;;;;;;;;;;4989716;28;20470;-66
2021/04/14 09:24:51;;;;;;;3.20;1.80;;;;;;;;;;5003351;28;20477;-64
2021/04/14 09:27:24;;;;;;;4.93;2.30;;;;;;;;;;5005645;28;20466;-67
2021/04/14 09:30:09;;;;;;;3.70;1.80;;;;;;;;;;4997440;28;20451;-64
2021/04/14 09:32:53;;;;;;;6.90;2.00;;;;;;;;;;4984911;28;20455;-66
2021/04/14 09:35:23;;;;;;;5.07;2.50;;;;;;;;;;5002659;28;20580;-66
2021/04/14 09:37:52;;;;;;;7.87;2.60;;;;;;;;;;5009423;28;20462;-66
2021/04/14 09:40:28;;;;;;;4.90;2.17;;;;;;;;;;5011673;28;20483;-65
2021/04/14 09:42:55;;;;;;;5.23;2.40;;;;;;;;;;5011578;28;20465;-65
2021/04/14 09:45:33;;;;;;;6.50;2.73;;;;;;;;;;4997638;28;20475;-64
2021/04/14 09:48:01;;;;;;;3.83;2.57;;;;;;;;;;4996446;28;20963;-65
2021/04/14 09:50:40;;;;;;;4.90;2.30;;;;;;;;;;5012378;28;20492;-65
2021/04/14 09:53:08;;;;;;;5.10;3.40;;;;;;;;;;5009673;28;20472;-65
2021/04/14 09:55:41;;;;;;;3.80;2.20;;;;;;;;;;5008081;28;20481;-65
2021/04/14 09:58:09;;;;;;;3.33;2.37;;;;;;;;;;4994014;28;20456;-66
2021/04/14 10:00:40;;;;;;;2.67;1.87;;;;;;;;;;4992018;28;20988;-67
2021/04/14 10:03:10;;;;;;;3.40;1.97;;;;;;;;;;4996348;28;20520;-67
2021/04/14 10:05:38;;;;;;;4.13;2.30;;;;;;;;;;5010077;28;20496;-65
2021/04/14 10:08:06;;;;;;;2.20;1.83;;;;;;;;;;5004870;28;20536;-66
2021/04/14 10:10:40;;;;;;;3.53;1.83;;;;;;;;;;4994990;28;20940;-66
2021/04/14 10:13:09;;;;;;;3.77;2.03;;;;;;;;;;4999337;28;20532;-66
2021/04/14 10:15:38;;;;;;;4.03;2.40;;;;;;;;;;5002577;28;21016;-65
2021/04/14 10:18:04;;;;;;;3.60;2.40;;;;;;;;;;5013109;28;20468;-66
2021/04/14 10:20:34;;;;;;;4.17;2.07;;;;;;;;;;5020369;23;20494;-63
2021/04/14 10:23:01;;;;;;;3.10;2.30;;;;;;;;;;4974953;28;20530;-62
2021/04/14 10:25:29;;;;;;;2.97;1.80;;;;;;;;;;4978477;28;20470;-60
2021/04/14 10:27:59;;;;;;;3.53;1.80;;;;;;;;;;4973746;28;20509;-60
2021/04/14 10:30:26;;;;;;;3.00;1.30;;;;;;;;;;4973862;28;20928;-60
2021/04/14 10:32:53;;;;;;;3.50;1.30;;;;;;;;;;4965845;28;20517;-61
2021/04/14 10:35:24;;;;;;;3.63;1.50;;;;;;;;;;4966360;28;20449;-61
2021/04/14 10:37:52;;;;;;;4.67;1.50;;;;;;;;;;4955137;28;20432;-61
2021/04/14 10:40:22;;;;;;;3.90;1.20;;;;;;;;;;4954915;28;20495;-61
2021/04/14 10:42:49;;;;;;;2.40;1.40;;;;;;;;;;4954747;28;20452;-60
2021/04/14 10:45:17;;;;;;;4.87;1.50;;;;;;;;;;4960353;28;20805;-60
2021/04/14 10:47:45;;;;;;;3.10;1.20;;;;;;;;;;4973145;28;20455;-59
2021/04/14 10:50:18;;;;;;;2.97;1.80;;;;;;;;;;4973293;28;20452;-59
2021/04/14 10:52:48;;;;;;;4.57;1.73;;;;;;;;;;4969869;28;20445;-59
2021/04/14 10:55:17;;;;;;;3.70;1.80;;;;;;;;;;4954624;28;20488;-59
2021/04/14 10:57:46;;;;;;;3.57;1.83;;;;;;;;;;4954695;28;20456;-59
2021/04/14 11:00:14;;;;;;;4.57;2.00;;;;;;;;;;4954144;28;21101;-59
2021/04/14 11:02:43;;;;;;;3.63;1.53;;;;;;;;;;4954546;28;20480;-59
2021/04/14 11:05:11;;;;;;;4.37;2.10;;;;;;;;;;4967343;28;20452;-60
2021/04/14 11:07:38;;;;;;;3.00;1.57;;;;;;;;;;4967948;28;20840;-60
2021/04/14 11:10:06;;;;;;;3.00;1.83;;;;;;;;;;4972983;28;20458;-59
2021/04/14 11:12:33;;;;;;;4.43;1.80;;;;;;;;;;4973339;28;20851;-60
2021/04/14 11:15:02;;;;;;;2.13;1.67;;;;;;;;;;4971870;28;20466;-59
2021/04/14 11:17:30;;;;;;;4.23;2.20;;;;;;;;;;4964823;28;20818;-60
2021/04/14 11:19:58;;;;;;;5.20;2.20;;;;;;;;;;4971038;28;20857;-60
2021/04/14 11:22:25;;;;;;;3.90;2.50;;;;;;;;;;4973143;28;20521;-59
2021/04/14 11:24:53;;;;;;;4.37;1.97;;;;;;;;;;4957829;28;20964;-60
2021/04/14 11:27:23;;;;;;;3.83;2.17;;;;;;;;;;4954076;28;20464;-60
2021/04/14 11:29:50;;;;;;;2.13;1.93;;;;;;;;;;4954329;28;20441;-60
2021/04/14 11:32:19;;;;;;;3.77;2.17;;;;;;;;;;4971089;28;21120;-59
2021/04/14 11:34:59;;;;;;;2.13;1.80;;;;;;;;;;4973432;28;20467;-60
2021/04/14 11:37:30;;;;;;;4.23;2.10;;;;;;;;;;4972880;28;20462;-60
2021/04/14 11:39:58;;;;;;;2.77;1.70;;;;;;;;;;4973299;28;20538;-60
2021/04/14 11:42:26;;;;;;;2.23;1.80;;;;;;;;;;4968764;28;20479;-60
2021/04/14 11:44:53;;;;;;;4.20;1.80;;;;;;;;;;4958037;28;20928;-59
2021/04/14 11:47:22;;;;;;;3.43;1.73;;;;;;;;;;4970769;28;20463;-60
2021/04/14 11:49:49;;;;;;;2.63;1.93;;;;;;;;;;4971218;28;20472;-60
2021/04/14 11:52:30;;;;;;;2.47;2.00;;;;;;;;;;4971724;28;21041;-59
2021/04/14 11:54:57;;;;;;;2.70;2.00;;;;;;;;;;4959885;28;20463;-59
2021/04/14 11:57:25;;;;;;;2.10;1.90;;;;;;;;;;4956959;28;20542;-60
2021/04/14 12:00:04;;;;;;;4.93;2.10;;;;;;;;;;4956661;28;20635;-60
2021/04/14 12:02:32;;;;;;;2.90;1.83;;;;;;;;;;4953914;28;20479;-60
2021/04/14 12:04:59;;;;;;;2.10;1.40;;;;;;;;;;4954492;28;20457;-61
2021/04/14 12:07:26;;;;;;;2.40;1.80;;;;;;;;;;4963664;28;20455;-60
2021/04/14 12:09:53;;;;;;;2.23;1.63;;;;;;;;;;4953551;28;20864;-61
2021/04/14 12:12:20;;;;;;;3.13;1.27;;;;;;;;;;4962853;28;20476;-61
2021/04/14 12:14:46;;;;;;;2.70;1.27;;;;;;;;;;4971839;28;20459;-58
2021/04/14 12:17:13;;;;;;;4.73;1.70;;;;;;;;;;4972037;28;20950;-58
2021/04/14 12:19:41;;;;;;;1.80;1.40;;;;;;;;;;4955564;28;20866;-60
2021/04/14 12:22:08;;;;;;;3.50;1.60;;;;;;;;;;4953527;28;20999;-61
2021/04/14 12:24:34;;;;;;;4.87;2.17;;;;;;;;;;4955134;28;20463;-61
2021/04/14 12:27:02;;;;;;;3.03;1.57;;;;;;;;;;4964115;28;20970;-61
2021/04/14 12:29:28;;;;;;;3.53;2.00;;;;;;;;;;4962048;28;20551;-60
2021/04/14 12:31:55;;;;;;;2.43;1.70;;;;;;;;;;4965867;28;20475;-61
2021/04/14 12:34:22;;;;;;;2.60;2.00;;;;;;;;;;4974806;28;20486;-61
2021/04/14 12:36:49;;;;;;;3.77;2.10;;;;;;;;;;4975688;28;20454;-61
2021/04/14 12:39:16;;;;;;;2.57;1.80;;;;;;;;;;4970219;28;20511;-61
2021/04/14 12:41:42;;;;;;;2.80;1.73;;;;;;;;;;4962337;28;20472;-60
2021/04/14 12:44:10;;;;;;;3.13;2.00;;;;;;;;;;4963346;28;20455;-61
2021/04/14 12:46:40;;;;;;;2.87;1.80;;;;;;;;;;4975010;28;20451;-61
2021/04/14 12:49:11;;;;;;;2.90;2.40;;;;;;;;;;4961169;28;20456;-61
2021/04/14 12:51:39;;;;;;;3.60;2.40;;;;;;;;;;4962683;28;20472;-61
2021/04/14 12:54:12;;;;;;;2.70;2.07;;;;;;;;;;4970574;28;20456;-61
2021/04/14 12:56:40;;;;;;;3.30;2.13;;;;;;;;;;4959342;28;20518;-61
2021/04/14 12:59:08;;;;;;;3.90;2.27;;;;;;;;;;4975131;28;20981;-61
2021/04/14 13:01:35;;;;;;;2.90;2.40;;;;;;;;;;4972935;28;20491;-61
2021/04/14 13:04:04;;;;;;;2.93;2.00;;;;;;;;;;4975538;28;20455;-60
2021/04/14 13:06:33;;;;;;;3.83;2.10;;;;;;;;;;4963775;28;20460;-61
2021/04/14 13:09:01;;;;;;;3.00;2.00;;;;;;;;;;4976103;28;20463;-61
2021/04/14 13:11:32;;;;;;;4.20;2.40;;;;;;;;;;4972768;28;20471;-61
2021/04/14 13:13:58;;;;;;;2.80;1.97;;;;;;;;;;4963630;28;20495;-62
2021/04/14 13:16:27;;;;;;;4.10;1.97;;;;;;;;;;4969103;28;21030;-62
2021/04/14 13:18:54;;;;;;;2.03;1.83;;;;;;;;;;4975557;28;20447;-61
2021/04/14 13:21:26;;;;;;;2.80;1.90;;;;;;;;;;4965869;28;20567;-60
2021/04/14 13:23:57;;;;;;;3.20;1.73;;;;;;;;;;4957043;28;20444;-61
2021/04/14 13:26:27;;;;;;;2.20;1.70;;;;;;;;;;4958194;28;20959;-61
2021/04/14 13:28:56;;;;;;;2.17;1.83;;;;;;;;;;4970905;28;20459;-61
2021/04/14 13:31:27;;;;;;;3.57;1.90;;;;;;;;;;4966660;28;20479;-59
2021/04/14 13:33:55;;;;;;;2.50;1.50;;;;;;;;;;4970761;28;20462;-60
2021/04/14 13:36:24;;;;;;;2.20;1.60;;;;;;;;;;4973501;28;20451;-60
2021/04/14 13:38:53;;;;;;;3.40;1.60;;;;;;;;;;4961097;28;20459;-60
2021/04/14 13:41:23;;;;;;;2.87;1.80;;;;;;;;;;4969323;28;20467;-60
2021/04/14 13:43:50;;;;;;;3.00;2.07;;;;;;;;;;4955889;28;20987;-60
2021/04/14 13:46:20;;;;;;;3.73;2.20;;;;;;;;;;4972203;28;20454;-60
2021/04/14 13:48:52;;;;;;;2.10;1.90;;;;;;;;;;4971301;28;20455;-60
2021/04/14 13:51:21;;;;;;;2.67;1.60;;;;;;;;;;4964543;28;20484;-60
2021/04/14 13:53:49;;;;;;;2.30;1.70;;;;;;;;;;4968375;28;20997;-60
2021/04/14 13:56:27;;;;;;;2.70;1.80;;;;;;;;;;4959556;28;20456;-60
2021/04/14 13:58:57;;;;;;;2.43;1.77;;;;;;;;;;4959855;28;20510;-60
2021/04/14 14:01:26;;;;;;;2.60;1.93;;;;;;;;;;4955515;28;20472;-60
2021/04/14 14:03:52;;;;;;;2.90;2.30;;;;;;;;;;4971520;28;20850;-60
2021/04/14 14:06:23;;;;;;;3.47;2.17;;;;;;;;;;4974887;28;20507;-60
2021/04/14 14:08:51;;;;;;;5.03;2.07;;;;;;;;;;4969255;28;20970;-60
2021/04/14 14:11:20;;;;;;;4.70;2.07;;;;;;;;;;4974244;28;20491;-60
2021/04/14 14:13:47;;;;;;;6.37;2.30;;;;;;;;;;4971499;28;20456;-60
2021/04/14 14:16:18;;;;;;;3.30;2.47;;;;;;;;;;4960890;28;20870;-61
2021/04/14 14:18:57;;;;;;;2.73;2.20;;;;;;;;;;4964134;28;20451;-60
2021/04/14 14:21:24;;;;;;;2.80;2.17;;;;;;;;;;4972151;28;20491;-62
2021/04/14 14:23:51;;;;;;;3.03;2.20;;;;;;;;;;4969641;28;21001;-62
2021/04/14 14:26:18;;;;;;;3.47;2.17;;;;;;;;;;4973351;28;21037;-62
2021/04/14 14:28:45;;;;;;;4.73;2.23;;;;;;;;;;4971780;28;20447;-60
2021/04/14 14:31:13;;;;;;;2.43;2.20;;;;;;;;;;4972478;28;20486;-59
2021/04/14 14:33:40;;;;;;;3.10;1.93;;;;;;;;;;4958380;28;20875;-62
2021/04/14 14:36:12;;;;;;;4.57;2.60;;;;;;;;;;4966280;28;20475;-62
2021/04/14 14:38:41;;;;;;;3.10;2.00;;;;;;;;;;4972756;28;20455;-62
2021/04/14 14:41:09;;;;;;;3.83;2.40;;;;;;;;;;4969769;28;20491;-62
2021/04/14 14:43:38;;;;;;;2.90;2.10;;;;;;;;;;4973838;28;20451;-62
2021/04/14 14:46:07;;;;;;;3.60;2.23;;;;;;;;;;4968413;28;20993;-62
2021/04/14 14:48:36;;;;;;;2.77;2.57;;;;;;;;;;4972178;28;20475;-59